This is the latest recevied weather packets stored in our database for station/object CE4TQY-10. If no packets are shown the sender has not sent any weather packets the latest 10 day(s).
| Time | Temp. | Humidity | Pressure | Rain* | Wind** | Luminosity | Snow |
|---|---|---|---|---|---|---|---|
| 1777995393 | 20.56° C | 39% | 1015.7 hPa | - | - | - | - |
| 1777990889 | 15.56° C | 52% | 1015.9 hPa | - | - | - | - |
| 1777988185 | 14.44° C | 53% | 1016.1 hPa | - | - | - | - |
| 1777987284 | 14.44° C | 54% | 1016.1 hPa | - | - | - | - |
| 1777985483 | 13.89° C | 55% | 1016.8 hPa | - | - | - | - |
| 1777984582 | 13.89° C | 54% | 1017.2 hPa | - | - | - | - |
| 1777983681 | 13.33° C | 56% | 1017.2 hPa | - | - | - | - |
| 1777980978 | 13.33° C | 55% | 1017.9 hPa | - | - | - | - |
| 1777980077 | 12.78° C | 58% | 1019.1 hPa | - | - | - | - |
| 1777979176 | 13.33° C | 56% | 1019.1 hPa | - | - | - | - |
| 1777977373 | 13.33° C | 56% | 1018.8 hPa | - | - | - | - |
| 1777976472 | 13.33° C | 57% | 1018.8 hPa | - | - | - | - |
| 1777975571 | 13.33° C | 58% | 1018.2 hPa | - | - | - | - |
| 1777974670 | 12.78° C | 60% | 1018.1 hPa | - | - | - | - |
| 1777973769 | 12.78° C | 60% | 1017.6 hPa | - | - | - | - |
| 1777972868 | 12.78° C | 60% | 1017.8 hPa | - | - | - | - |
| 1777971967 | 12.78° C | 60% | 1017.3 hPa | - | - | - | - |
| 1777971066 | 12.78° C | 61% | 1016.9 hPa | - | - | - | - |
| 1777970198 | 12.22° C | 62% | 1016.8 hPa | - | - | - | - |
| 1777970165 | 12.22° C | 62% | 1016.8 hPa | - | - | - | - |
| 1777969264 | 12.78° C | 61% | 1016.7 hPa | - | - | - | - |
| 1777968363 | 12.78° C | 58% | 1016.6 hPa | - | - | - | - |
| 1777967462 | 13.33° C | 54% | 1016.7 hPa | - | - | - | - |
| 1777966561 | 13.33° C | 54% | 1016.7 hPa | - | - | - | - |
| 1777965660 | 13.89° C | 53% | 1016.7 hPa | - | - | - | - |
* Rain since midnight (hover to see other rain measurements)
** Current wind speed in m/s (hover to see current wind gust speed)